createdAt,value
2022-10-25T00:01:49.058Z,18.30
2022-10-25T00:06:50.893Z,18.30
2022-10-25T00:09:21.859Z,18.30
2022-10-25T00:11:52.180Z,18.20
2022-10-25T00:14:27.783Z,18.20
2022-10-25T00:16:57.368Z,18.30
2022-10-25T00:19:27.103Z,18.20
2022-10-25T00:21:56.771Z,18.20
2022-10-25T00:24:26.774Z,18.30
2022-10-25T00:26:58.219Z,18.30
2022-10-25T00:29:26.579Z,18.20
2022-10-25T00:31:56.824Z,18.30
2022-10-25T00:34:26.099Z,18.30
2022-10-25T00:36:56.210Z,18.30
2022-10-25T00:39:25.003Z,18.20
2022-10-25T00:41:55.285Z,18.30
2022-10-25T00:44:40.395Z,18.30
2022-10-25T00:47:22.611Z,18.30
2022-10-25T00:50:30.139Z,18.30
2022-10-25T00:53:00.928Z,18.30
2022-10-25T00:55:32.177Z,18.20
2022-10-25T00:58:26.859Z,18.30
2022-10-25T01:00:57.112Z,18.30
2022-10-25T01:03:28.700Z,18.30
2022-10-25T01:06:04.700Z,18.30
2022-10-25T01:08:41.302Z,18.20
2022-10-25T01:11:09.482Z,18.20
2022-10-25T01:13:40.599Z,18.30
2022-10-25T01:16:48.113Z,18.30
2022-10-25T01:19:53.736Z,18.20
2022-10-25T01:23:08.320Z,18.30
2022-10-25T01:25:48.075Z,18.20
2022-10-25T01:29:00.210Z,18.20
2022-10-25T01:32:04.567Z,18.20
2022-10-25T01:35:00.520Z,18.20
2022-10-25T01:37:39.581Z,18.30
2022-10-25T01:40:38.427Z,18.30
2022-10-25T01:43:33.913Z,18.30
2022-10-25T01:46:03.707Z,18.20
2022-10-25T01:48:36.849Z,18.30
2022-10-25T01:51:17.553Z,18.20
2022-10-25T01:53:53.977Z,18.30
2022-10-25T01:56:46.744Z,18.30
2022-10-25T01:59:44.933Z,18.20
2022-10-25T02:02:28.983Z,18.40
2022-10-25T02:05:32.836Z,18.30
2022-10-25T02:08:38.795Z,18.30
2022-10-25T02:11:23.330Z,18.20
2022-10-25T02:14:22.353Z,18.30
2022-10-25T02:17:07.508Z,18.30
2022-10-25T02:19:46.753Z,18.20
2022-10-25T02:22:21.836Z,18.20
2022-10-25T02:24:54.418Z,18.20
2022-10-25T02:27:25.939Z,18.20
2022-10-25T02:29:57.058Z,18.30
2022-10-25T02:32:25.499Z,18.30
2022-10-25T02:34:55.865Z,18.30
2022-10-25T02:37:22.972Z,18.20
2022-10-25T02:39:53.559Z,18.30
2022-10-25T02:42:23.188Z,18.20
2022-10-25T02:44:53.662Z,18.20
2022-10-25T02:47:28.731Z,18.30
2022-10-25T02:49:56.856Z,18.20
2022-10-25T02:52:27.595Z,18.20
2022-10-25T02:54:54.482Z,18.20
2022-10-25T02:57:24.142Z,18.30
2022-10-25T02:59:52.450Z,18.20
2022-10-25T03:02:23.934Z,18.20
2022-10-25T03:04:51.947Z,18.20
2022-10-25T03:07:22.557Z,18.20
2022-10-25T03:09:50.421Z,18.20
2022-10-25T03:12:18.543Z,18.20
2022-10-25T03:14:50.103Z,18.20
2022-10-25T03:17:21.600Z,18.30
2022-10-25T03:19:51.340Z,18.30
2022-10-25T03:22:19.313Z,18.20
2022-10-25T03:24:48.770Z,18.20
2022-10-25T03:27:32.578Z,18.20
2022-10-25T03:30:00.633Z,18.20
2022-10-25T03:32:30.937Z,18.30
2022-10-25T03:35:00.407Z,18.20
2022-10-25T03:37:30.031Z,18.20
2022-10-25T03:39:59.670Z,18.30
2022-10-25T03:42:32.411Z,18.30
2022-10-25T03:45:00.236Z,18.20
2022-10-25T03:47:37.216Z,18.30
2022-10-25T03:50:09.360Z,18.30
2022-10-25T03:52:38.907Z,18.30
2022-10-25T03:55:10.119Z,18.30
2022-10-25T03:57:38.924Z,18.30
2022-10-25T04:00:11.234Z,18.30
2022-10-25T04:02:41.000Z,18.30
2022-10-25T04:05:12.485Z,18.20
2022-10-25T04:07:40.795Z,18.30
2022-10-25T04:10:19.312Z,18.30
2022-10-25T04:15:31.975Z,18.30
2022-10-25T04:18:03.925Z,18.30
2022-10-25T04:20:36.012Z,18.30
2022-10-25T04:23:07.116Z,18.30
2022-10-25T04:25:39.275Z,18.20
2022-10-25T04:28:07.128Z,18.30
2022-10-25T04:30:38.773Z,18.30
2022-10-25T04:33:10.182Z,18.30
2022-10-25T04:35:39.830Z,18.40
2022-10-25T04:38:07.781Z,18.40
2022-10-25T04:40:38.361Z,18.30
2022-10-25T04:43:10.686Z,18.30
2022-10-25T04:45:43.015Z,18.20
2022-10-25T04:48:13.195Z,18.20
2022-10-25T04:50:44.566Z,18.30
2022-10-25T04:53:20.885Z,18.30
2022-10-25T04:56:08.576Z,18.30
2022-10-25T04:58:38.716Z,18.30
2022-10-25T05:01:15.262Z,18.30
2022-10-25T05:03:47.848Z,18.30
2022-10-25T05:06:32.900Z,18.30
2022-10-25T05:09:04.724Z,18.40
2022-10-25T05:14:08.692Z,18.30
2022-10-25T05:16:37.324Z,18.30
2022-10-25T05:19:07.142Z,18.20
2022-10-25T05:21:35.589Z,18.30
2022-10-25T05:24:03.032Z,18.30
2022-10-25T05:26:34.249Z,18.30
2022-10-25T05:29:09.345Z,18.30
2022-10-25T05:31:38.751Z,18.40
2022-10-25T05:34:06.822Z,18.40
2022-10-25T05:36:35.231Z,18.30
2022-10-25T05:39:05.380Z,18.30
2022-10-25T05:41:36.224Z,18.30
2022-10-25T05:44:06.378Z,18.30
2022-10-25T05:46:39.015Z,18.30
2022-10-25T05:49:14.577Z,18.30
2022-10-25T05:51:41.498Z,18.40
2022-10-25T05:54:12.601Z,18.30
2022-10-25T05:56:43.989Z,18.30
2022-10-25T05:59:14.692Z,18.30
2022-10-25T06:01:46.155Z,18.30
2022-10-25T06:04:18.378Z,18.30
2022-10-25T06:06:49.887Z,18.40
2022-10-25T06:09:29.056Z,18.40
2022-10-25T06:11:57.754Z,18.30
2022-10-25T06:14:33.290Z,18.40
2022-10-25T06:17:06.666Z,18.40
2022-10-25T06:19:35.922Z,18.40
2022-10-25T06:22:15.403Z,18.40
2022-10-25T06:24:44.868Z,18.40
2022-10-25T06:27:28.974Z,18.30
2022-10-25T06:29:56.098Z,18.40
2022-10-25T06:32:26.100Z,18.40
2022-10-25T06:34:54.458Z,18.40
2022-10-25T06:37:21.605Z,18.40
2022-10-25T06:39:48.891Z,18.40
2022-10-25T06:42:18.184Z,18.40
2022-10-25T06:44:46.432Z,18.40
2022-10-25T06:47:18.378Z,18.30
2022-10-25T06:49:49.239Z,18.40
2022-10-25T06:52:19.210Z,18.30
2022-10-25T06:54:48.707Z,18.40
2022-10-25T06:57:15.643Z,18.40
2022-10-25T06:59:46.044Z,18.50
2022-10-25T07:02:12.969Z,18.40
2022-10-25T07:04:45.146Z,18.40
2022-10-25T07:07:15.930Z,18.40
2022-10-25T07:09:48.163Z,18.50
2022-10-25T07:12:19.498Z,18.40
2022-10-25T07:14:47.396Z,18.50
2022-10-25T07:17:17.856Z,18.40
2022-10-25T07:19:52.095Z,18.50
2022-10-25T07:22:35.869Z,18.50
2022-10-25T07:25:04.198Z,18.50
2022-10-25T07:27:34.120Z,18.50
2022-10-25T07:30:04.100Z,18.50
2022-10-25T07:32:41.490Z,18.50
2022-10-25T07:35:12.810Z,18.50
2022-10-25T07:37:44.408Z,18.60
2022-10-25T07:40:21.808Z,18.50
2022-10-25T07:42:52.490Z,18.60
2022-10-25T07:45:23.570Z,18.60
2022-10-25T07:47:55.841Z,18.60
2022-10-25T07:50:27.150Z,18.60
2022-10-25T07:52:57.739Z,18.60
2022-10-25T07:55:27.958Z,18.60
2022-10-25T07:58:07.135Z,18.60
2022-10-25T08:00:36.133Z,18.60
2022-10-25T08:03:06.983Z,18.60
2022-10-25T08:05:37.704Z,18.60
2022-10-25T08:08:17.605Z,18.70
2022-10-25T08:10:46.362Z,18.70
2022-10-25T08:13:28.053Z,18.70
2022-10-25T08:15:57.783Z,18.70
2022-10-25T08:18:28.413Z,18.70
2022-10-25T08:21:02.309Z,18.70
2022-10-25T08:23:40.160Z,18.70
2022-10-25T08:26:09.841Z,18.60
2022-10-25T08:28:39.389Z,18.70
2022-10-25T08:31:19.044Z,18.70
2022-10-25T08:33:47.070Z,18.70
2022-10-25T08:36:16.789Z,18.70
2022-10-25T08:38:47.575Z,18.70
2022-10-25T08:41:39.376Z,18.70
2022-10-25T08:44:22.100Z,18.60
2022-10-25T08:47:28.019Z,18.80
2022-10-25T08:49:55.818Z,18.70
2022-10-25T08:52:42.760Z,18.60
2022-10-25T08:55:34.839Z,18.70
2022-10-25T08:58:06.608Z,18.80
2022-10-25T09:00:40.956Z,18.70
2022-10-25T09:03:17.442Z,18.70
2022-10-25T09:05:56.770Z,18.80
2022-10-25T09:08:40.975Z,18.70
2022-10-25T09:11:39.834Z,18.70
2022-10-25T09:14:34.229Z,18.80
2022-10-25T09:17:18.697Z,18.80
2022-10-25T09:20:08.187Z,18.80
2022-10-25T09:23:07.824Z,18.70
2022-10-25T09:26:17.166Z,18.80
2022-10-25T09:29:07.592Z,18.80
2022-10-25T09:31:42.435Z,18.80
2022-10-25T09:34:13.306Z,18.70
2022-10-25T09:37:00.841Z,18.80
2022-10-25T09:39:58.685Z,18.80
2022-10-25T09:42:35.273Z,18.80
2022-10-25T09:45:21.844Z,18.80
2022-10-25T09:48:13.177Z,18.80
2022-10-25T09:51:06.926Z,18.70
2022-10-25T09:53:48.735Z,18.80
2022-10-25T09:56:18.473Z,18.70
2022-10-25T09:58:51.067Z,18.80
2022-10-25T10:01:26.830Z,18.80
2022-10-25T10:04:34.883Z,18.60
2022-10-25T10:07:30.288Z,18.80
2022-10-25T10:10:09.284Z,18.80
2022-10-25T10:13:04.856Z,18.80
2022-10-25T10:15:44.809Z,18.90
2022-10-25T10:18:36.417Z,18.80
2022-10-25T10:21:03.344Z,18.90
2022-10-25T10:23:39.252Z,18.80
2022-10-25T10:26:59.941Z,18.90
2022-10-25T10:29:39.918Z,18.80
2022-10-25T10:32:43.623Z,18.80
2022-10-25T10:35:28.428Z,18.80
2022-10-25T10:38:13.848Z,18.80
2022-10-25T10:40:46.629Z,18.90
2022-10-25T10:43:35.579Z,18.90
2022-10-25T10:46:20.534Z,18.90
2022-10-25T10:48:56.425Z,19.00
2022-10-25T10:51:44.027Z,19.00
2022-10-25T10:54:27.568Z,18.90
2022-10-25T10:56:56.979Z,19.00
2022-10-25T10:59:47.684Z,19.00
2022-10-25T11:02:46.944Z,18.90
2022-10-25T11:05:45.446Z,19.00
2022-10-25T11:08:22.919Z,19.10
2022-10-25T11:10:53.025Z,19.00
2022-10-25T11:13:24.647Z,19.10
2022-10-25T11:16:30.790Z,19.10
2022-10-25T11:19:11.474Z,19.20
2022-10-25T11:22:04.212Z,19.20
2022-10-25T11:24:47.040Z,19.30
2022-10-25T11:27:41.708Z,19.20
2022-10-25T11:30:25.522Z,19.20
2022-10-25T11:33:11.872Z,19.20
2022-10-25T11:36:16.087Z,19.10
2022-10-25T11:39:11.964Z,19.10
2022-10-25T11:41:58.513Z,19.10
2022-10-25T11:44:49.722Z,19.10
2022-10-25T11:47:26.906Z,19.10
2022-10-25T11:50:18.546Z,19.00
2022-10-25T11:53:25.918Z,19.00
2022-10-25T11:56:10.774Z,19.00
2022-10-25T11:58:41.528Z,19.10
2022-10-25T12:01:35.494Z,19.10
2022-10-25T12:04:28.468Z,19.10
2022-10-25T12:07:38.180Z,19.10
2022-10-25T12:10:11.685Z,19.20
2022-10-25T12:13:04.182Z,19.10
2022-10-25T12:15:42.604Z,19.20
2022-10-25T12:21:05.859Z,19.10
2022-10-25T12:23:48.843Z,19.10
2022-10-25T12:26:23.814Z,19.10
2022-10-25T12:28:56.638Z,19.10
2022-10-25T12:31:46.257Z,19.10
2022-10-25T12:34:34.774Z,19.10
2022-10-25T12:37:12.279Z,19.20
2022-10-25T12:39:44.384Z,19.00
2022-10-25T12:45:24.217Z,19.10
2022-10-25T12:48:10.574Z,19.00
2022-10-25T12:50:58.519Z,19.10
2022-10-25T12:53:49.189Z,19.00
2022-10-25T12:56:24.836Z,19.10
2022-10-25T12:59:08.891Z,19.10
2022-10-25T13:02:21.491Z,19.10
2022-10-25T13:04:58.045Z,19.10
2022-10-25T13:07:30.147Z,19.10
2022-10-25T13:10:08.451Z,19.10
2022-10-25T13:12:40.436Z,19.00
2022-10-25T13:15:19.044Z,19.10
2022-10-25T13:18:06.409Z,19.10
2022-10-25T13:20:37.707Z,19.10
2022-10-25T13:23:54.570Z,19.10
2022-10-25T13:26:26.356Z,19.10
2022-10-25T13:29:04.641Z,19.10
2022-10-25T13:31:47.628Z,19.20
2022-10-25T13:34:15.435Z,19.20
2022-10-25T13:37:00.704Z,19.10
2022-10-25T13:39:49.699Z,19.10
2022-10-25T13:42:17.702Z,19.10
2022-10-25T13:45:03.399Z,19.00
2022-10-25T13:47:47.211Z,19.10
2022-10-25T13:50:27.018Z,19.00
2022-10-25T13:53:02.576Z,19.10
2022-10-25T13:55:50.048Z,19.00
2022-10-25T13:58:31.938Z,19.10
2022-10-25T14:01:20.058Z,19.10
2022-10-25T14:04:04.941Z,19.00
2022-10-25T14:06:41.664Z,19.00
2022-10-25T14:09:28.374Z,19.00
2022-10-25T14:12:15.597Z,19.00
2022-10-25T14:14:55.352Z,18.90
2022-10-25T14:20:21.926Z,19.00
2022-10-25T14:23:08.609Z,19.00
2022-10-25T14:25:49.614Z,18.90
2022-10-25T14:28:27.908Z,19.00
2022-10-25T14:31:03.579Z,19.00
2022-10-25T14:33:39.377Z,19.00
2022-10-25T14:36:28.991Z,19.00
2022-10-25T14:39:04.445Z,18.90
2022-10-25T14:41:36.168Z,19.00
2022-10-25T14:44:23.136Z,19.00
2022-10-25T14:46:51.068Z,18.90
2022-10-25T14:49:23.183Z,19.00
2022-10-25T14:52:10.773Z,19.00
2022-10-25T14:54:42.853Z,19.00
2022-10-25T14:57:12.612Z,19.00
2022-10-25T14:59:49.656Z,19.00
2022-10-25T15:02:21.494Z,19.00
2022-10-25T15:05:00.384Z,18.90
2022-10-25T15:07:39.758Z,18.90
2022-10-25T15:10:36.200Z,19.00
2022-10-25T15:13:31.649Z,18.90
2022-10-25T15:16:03.138Z,18.90
2022-10-25T15:18:39.897Z,19.00
2022-10-25T15:21:10.913Z,18.90
2022-10-25T15:23:45.304Z,19.00
2022-10-25T15:26:30.462Z,18.90
2022-10-25T15:29:01.741Z,18.80
2022-10-25T15:31:32.799Z,18.90
2022-10-25T15:34:05.589Z,19.00
2022-10-25T15:36:36.039Z,19.00
2022-10-25T15:39:10.580Z,18.90
2022-10-25T15:41:42.413Z,18.90
2022-10-25T15:44:14.245Z,18.90
2022-10-25T15:46:50.812Z,19.00
2022-10-25T15:49:21.596Z,19.00
2022-10-25T15:51:51.738Z,18.90
2022-10-25T15:54:25.289Z,18.90
2022-10-25T15:56:57.237Z,18.90
2022-10-25T15:59:25.288Z,18.90
2022-10-25T16:01:56.594Z,19.00
2022-10-25T16:04:26.155Z,18.90
2022-10-25T16:07:04.703Z,18.90
2022-10-25T16:09:32.369Z,19.00
2022-10-25T16:12:00.088Z,18.90
2022-10-25T16:14:28.746Z,18.90
2022-10-25T16:17:02.988Z,19.00
2022-10-25T16:19:31.742Z,18.90
2022-10-25T16:21:59.467Z,18.90
2022-10-25T16:24:26.385Z,18.90
2022-10-25T16:26:53.260Z,18.90
2022-10-25T16:29:22.726Z,18.90
2022-10-25T16:31:49.670Z,18.90
2022-10-25T16:34:17.888Z,18.90
2022-10-25T16:36:48.210Z,18.90
2022-10-25T16:39:15.457Z,19.00
2022-10-25T16:41:45.106Z,18.90
2022-10-25T16:44:13.361Z,18.90
2022-10-25T16:46:40.415Z,18.80
2022-10-25T16:49:09.514Z,19.00
2022-10-25T16:51:37.571Z,18.90
2022-10-25T16:54:06.333Z,19.00
2022-10-25T16:56:33.209Z,18.90
2022-10-25T16:59:00.671Z,19.00
2022-10-25T17:01:32.546Z,18.90
2022-10-25T17:04:00.623Z,18.90
2022-10-25T17:06:43.232Z,18.90
2022-10-25T17:09:18.524Z,18.90
2022-10-25T17:11:45.995Z,18.90
2022-10-25T17:14:14.297Z,18.90
2022-10-25T17:16:43.459Z,18.90
2022-10-25T17:19:11.136Z,19.00
2022-10-25T17:21:38.695Z,18.90
2022-10-25T17:24:06.700Z,19.00
2022-10-25T17:26:33.570Z,18.90
2022-10-25T17:29:01.102Z,18.90
2022-10-25T17:31:28.348Z,18.90
2022-10-25T17:33:56.787Z,18.90
2022-10-25T17:36:23.626Z,19.00
2022-10-25T17:38:50.758Z,18.90
2022-10-25T17:41:17.916Z,19.00
2022-10-25T17:43:44.941Z,18.90
2022-10-25T17:46:18.747Z,18.90
2022-10-25T17:48:45.820Z,18.90
2022-10-25T17:51:14.518Z,18.90
2022-10-25T17:53:42.056Z,18.90
2022-10-25T17:56:13.660Z,18.90
2022-10-25T17:58:42.035Z,18.90
2022-10-25T18:01:10.069Z,18.90
2022-10-25T18:03:38.112Z,19.00
2022-10-25T18:06:10.630Z,19.00
2022-10-25T18:08:37.805Z,19.00
2022-10-25T18:11:19.317Z,18.90
2022-10-25T18:13:46.221Z,18.80
2022-10-25T18:16:13.170Z,18.90
2022-10-25T18:18:40.378Z,19.00
2022-10-25T18:21:09.395Z,18.90
2022-10-25T18:23:36.610Z,18.80
2022-10-25T18:26:05.131Z,18.80
2022-10-25T18:28:36.036Z,18.90
2022-10-25T18:31:05.232Z,18.90
2022-10-25T18:33:34.060Z,18.90
2022-10-25T18:36:06.866Z,18.90
2022-10-25T18:38:34.332Z,18.90
2022-10-25T18:41:05.475Z,18.90
2022-10-25T18:43:32.631Z,18.90
2022-10-25T18:46:00.928Z,18.80
2022-10-25T18:48:28.283Z,18.90
2022-10-25T18:50:55.490Z,18.80
2022-10-25T18:53:22.846Z,18.90
2022-10-25T18:55:53.093Z,18.90
2022-10-25T18:58:19.975Z,18.80
2022-10-25T19:00:47.194Z,18.80
2022-10-25T19:03:15.627Z,18.80
2022-10-25T19:05:43.138Z,18.80
2022-10-25T19:08:11.767Z,18.80
2022-10-25T19:10:42.313Z,18.80
2022-10-25T19:13:18.569Z,18.80
2022-10-25T19:15:46.498Z,18.80
2022-10-25T19:18:14.293Z,18.80
2022-10-25T19:20:46.443Z,18.70
2022-10-25T19:23:13.566Z,18.80
2022-10-25T19:25:40.537Z,18.80
2022-10-25T19:28:07.476Z,18.70
2022-10-25T19:30:38.112Z,18.70
2022-10-25T19:33:06.192Z,18.70
2022-10-25T19:35:33.773Z,18.70
2022-10-25T19:38:00.744Z,18.80
2022-10-25T19:40:27.728Z,18.70
2022-10-25T19:42:54.720Z,18.70
2022-10-25T19:45:21.566Z,18.70
2022-10-25T19:47:50.221Z,18.70
2022-10-25T19:50:17.867Z,18.70
2022-10-25T19:52:46.392Z,18.70
2022-10-25T19:55:13.315Z,18.70
2022-10-25T19:57:40.201Z,18.70
2022-10-25T20:00:09.964Z,18.70
2022-10-25T20:02:39.869Z,18.70
2022-10-25T20:05:07.139Z,18.70
2022-10-25T20:07:34.563Z,18.60
2022-10-25T20:10:01.521Z,18.70
2022-10-25T20:12:30.523Z,18.70
2022-10-25T20:14:58.471Z,18.70
2022-10-25T20:17:25.511Z,18.70
2022-10-25T20:19:52.384Z,18.60
2022-10-25T20:22:19.272Z,18.60
2022-10-25T20:24:46.143Z,18.70
2022-10-25T20:27:13.147Z,18.60
2022-10-25T20:29:40.260Z,18.70
2022-10-25T20:32:07.228Z,18.60
2022-10-25T20:34:35.414Z,18.70
2022-10-25T20:37:03.889Z,18.70
2022-10-25T20:39:30.795Z,18.60
2022-10-25T20:41:57.730Z,18.70
2022-10-25T20:44:24.826Z,18.70
2022-10-25T20:46:51.761Z,18.60
2022-10-25T20:49:18.701Z,18.70
2022-10-25T20:51:45.511Z,18.70
2022-10-25T20:54:12.438Z,18.70
2022-10-25T20:56:39.813Z,18.70
2022-10-25T20:59:07.056Z,18.60
2022-10-25T21:01:34.029Z,18.70
2022-10-25T21:04:01.108Z,18.70
2022-10-25T21:06:27.963Z,18.70
2022-10-25T21:08:54.878Z,18.70
2022-10-25T21:11:21.842Z,18.70
2022-10-25T21:13:48.736Z,18.60
2022-10-25T21:16:16.320Z,18.60
2022-10-25T21:18:44.146Z,18.60
2022-10-25T21:21:17.975Z,18.60
2022-10-25T21:23:46.100Z,18.60
2022-10-25T21:26:13.192Z,18.60
2022-10-25T21:28:41.695Z,18.60
2022-10-25T21:31:14.736Z,18.60
2022-10-25T21:33:49.739Z,18.60
2022-10-25T21:36:19.033Z,18.70
2022-10-25T21:38:46.075Z,18.60
2022-10-25T21:41:26.784Z,18.70
2022-10-25T21:43:55.061Z,18.60
2022-10-25T21:46:23.202Z,18.70
2022-10-25T21:48:50.804Z,18.60
2022-10-25T21:51:19.101Z,18.60
2022-10-25T21:53:46.081Z,18.60
2022-10-25T21:56:15.608Z,18.60
2022-10-25T21:58:44.316Z,18.60
2022-10-25T22:01:16.383Z,18.60
2022-10-25T22:03:43.812Z,18.60
2022-10-25T22:06:12.860Z,18.60
2022-10-25T22:08:40.208Z,18.60
2022-10-25T22:11:10.934Z,18.60
2022-10-25T22:13:38.560Z,18.50
2022-10-25T22:16:11.510Z,18.50
2022-10-25T22:18:38.746Z,18.60
2022-10-25T22:21:08.540Z,18.50
2022-10-25T22:23:36.081Z,18.60
2022-10-25T22:26:06.272Z,18.60
2022-10-25T22:28:36.681Z,18.60
2022-10-25T22:31:12.227Z,18.60
2022-10-25T22:33:39.496Z,18.70
2022-10-25T22:36:11.706Z,18.60
2022-10-25T22:38:38.796Z,18.60
2022-10-25T22:41:10.064Z,18.60
2022-10-25T22:43:38.392Z,18.60
2022-10-25T22:46:07.622Z,18.60
2022-10-25T22:48:36.423Z,18.60
2022-10-25T22:51:04.018Z,18.60
2022-10-25T22:53:31.553Z,18.70
2022-10-25T22:56:03.990Z,18.60
2022-10-25T22:58:32.810Z,18.60
2022-10-25T23:03:40.059Z,18.60
2022-10-25T23:06:10.973Z,18.70
2022-10-25T23:08:38.246Z,18.70
2022-10-25T23:11:09.496Z,18.60
2022-10-25T23:13:36.676Z,18.60
2022-10-25T23:16:04.164Z,18.60
2022-10-25T23:18:31.481Z,18.60
2022-10-25T23:21:00.790Z,18.70
2022-10-25T23:23:29.263Z,18.70
2022-10-25T23:26:00.703Z,18.70
2022-10-25T23:28:30.284Z,18.70
2022-10-25T23:31:02.568Z,18.60
2022-10-25T23:33:29.491Z,18.70
2022-10-25T23:36:02.277Z,18.70
2022-10-25T23:38:29.527Z,18.70
2022-10-25T23:40:56.643Z,18.60
2022-10-25T23:43:23.584Z,18.60
2022-10-25T23:45:50.727Z,18.70
2022-10-25T23:48:17.760Z,18.60
2022-10-25T23:50:44.767Z,18.70
2022-10-25T23:53:11.645Z,18.70
2022-10-25T23:55:39.047Z,18.70
2022-10-25T23:58:06.185Z,18.70
